sensor_id;sensor_type;location;lat;lon;timestamp;pressure;altitude;pressure_sealevel;temperature;humidity
79481;BME280;68944;48.262;14.208;2023-08-12T00:00:16;98847.28;;;20.65;56.57
79481;BME280;68944;48.262;14.208;2023-08-12T00:02:44;98840.28;;;20.64;56.41
79481;BME280;68944;48.262;14.208;2023-08-12T00:05:10;98839.75;;;20.56;56.60
79481;BME280;68944;48.262;14.208;2023-08-12T00:07:36;98841.91;;;20.54;56.44
79481;BME280;68944;48.262;14.208;2023-08-12T00:10:02;98844.34;;;20.56;56.38
79481;BME280;68944;48.262;14.208;2023-08-12T00:12:35;98838.69;;;20.52;56.28
79481;BME280;68944;48.262;14.208;2023-08-12T00:15:01;98854.06;;;20.52;56.23
79481;BME280;68944;48.262;14.208;2023-08-12T00:17:28;98836.56;;;20.49;56.26
79481;BME280;68944;48.262;14.208;2023-08-12T00:19:53;98839.25;;;20.49;56.18
79481;BME280;68944;48.262;14.208;2023-08-12T00:22:19;98832.25;;;20.48;56.24
79481;BME280;68944;48.262;14.208;2023-08-12T00:24:44;98824.75;;;20.29;56.33
79481;BME280;68944;48.262;14.208;2023-08-12T00:27:10;98829.59;;;20.27;56.76
79481;BME280;68944;48.262;14.208;2023-08-12T00:29:36;98832.56;;;20.31;56.33
79481;BME280;68944;48.262;14.208;2023-08-12T00:32:01;98836.06;;;20.26;56.29
79481;BME280;68944;48.262;14.208;2023-08-12T00:34:27;98844.69;;;20.28;56.43
79481;BME280;68944;48.262;14.208;2023-08-12T00:36:53;98834.97;;;20.22;56.55
79481;BME280;68944;48.262;14.208;2023-08-12T00:39:18;98841.44;;;20.10;56.74
79481;BME280;68944;48.262;14.208;2023-08-12T00:41:44;98838.22;;;19.93;57.28
79481;BME280;68944;48.262;14.208;2023-08-12T00:44:09;98837.94;;;19.89;57.35
79481;BME280;68944;48.262;14.208;2023-08-12T00:46:36;98830.13;;;19.87;57.45
79481;BME280;68944;48.262;14.208;2023-08-12T00:49:04;98826.91;;;19.80;57.47
79481;BME280;68944;48.262;14.208;2023-08-12T00:51:29;98829.34;;;19.66;58.14
79481;BME280;68944;48.262;14.208;2023-08-12T00:53:57;98827.97;;;19.69;57.67
79481;BME280;68944;48.262;14.208;2023-08-12T00:56:23;98812.13;;;19.72;57.34
79481;BME280;68944;48.262;14.208;2023-08-12T00:58:49;98809.47;;;19.77;57.20
79481;BME280;68944;48.262;14.208;2023-08-12T01:01:15;98808.66;;;19.77;57.09
79481;BME280;68944;48.262;14.208;2023-08-12T01:03:43;98812.94;;;19.67;57.50
79481;BME280;68944;48.262;14.208;2023-08-12T01:06:08;98801.91;;;19.69;57.09
79481;BME280;68944;48.262;14.208;2023-08-12T01:08:35;98807.31;;;19.80;56.98
79481;BME280;68944;48.262;14.208;2023-08-12T01:11:14;98796.28;;;19.81;56.76
79481;BME280;68944;48.262;14.208;2023-08-12T01:16:33;98790.63;;;19.57;56.98
79481;BME280;68944;48.262;14.208;2023-08-12T01:19:05;98803.53;;;19.60;56.93
79481;BME280;68944;48.262;14.208;2023-08-12T01:21:33;98797.88;;;19.56;56.87
79481;BME280;68944;48.262;14.208;2023-08-12T01:24:01;98804.06;;;19.62;56.77
79481;BME280;68944;48.262;14.208;2023-08-12T01:26:27;98801.38;;;19.67;56.72
79481;BME280;68944;48.262;14.208;2023-08-12T01:28:52;98811.59;;;19.65;56.52
79481;BME280;68944;48.262;14.208;2023-08-12T01:31:23;98805.97;;;19.61;56.82
79481;BME280;68944;48.262;14.208;2023-08-12T01:33:57;98812.94;;;19.62;56.95
79481;BME280;68944;48.262;14.208;2023-08-12T01:36:25;98807.53;;;19.57;56.99
79481;BME280;68944;48.262;14.208;2023-08-12T01:38:56;98812.38;;;19.55;57.55
79481;BME280;68944;48.262;14.208;2023-08-12T01:41:23;98808.09;;;19.49;57.13
79481;BME280;68944;48.262;14.208;2023-08-12T01:43:49;98796.25;;;19.44;57.52
79481;BME280;68944;48.262;14.208;2023-08-12T01:46:15;98801.88;;;19.43;57.69
79481;BME280;68944;48.262;14.208;2023-08-12T01:48:41;98798.13;;;19.39;57.41
79481;BME280;68944;48.262;14.208;2023-08-12T01:51:06;98800.56;;;19.40;57.18
79481;BME280;68944;48.262;14.208;2023-08-12T01:53:32;98798.13;;;19.39;57.52
79481;BME280;68944;48.262;14.208;2023-08-12T01:55:58;98796.25;;;19.39;57.48
79481;BME280;68944;48.262;14.208;2023-08-12T01:58:24;98793.72;;;19.06;58.10
79481;BME280;68944;48.262;14.208;2023-08-12T02:00:52;98802.59;;;19.07;57.71
79481;BME280;68944;48.262;14.208;2023-08-12T02:03:18;98798.59;;;19.15;58.00
79481;BME280;68944;48.262;14.208;2023-08-12T02:05:43;98805.63;;;19.21;57.77
79481;BME280;68944;48.262;14.208;2023-08-12T02:08:09;98806.97;;;19.24;57.76
79481;BME280;68944;48.262;14.208;2023-08-12T02:10:34;98802.13;;;19.26;57.50
79481;BME280;68944;48.262;14.208;2023-08-12T02:13:00;98798.09;;;19.18;57.66
79481;BME280;68944;48.262;14.208;2023-08-12T02:15:26;98799.16;;;19.17;57.80
79481;BME280;68944;48.262;14.208;2023-08-12T02:17:51;98797.78;;;19.14;58.11
79481;BME280;68944;48.262;14.208;2023-08-12T02:20:17;98793.22;;;19.15;57.81
79481;BME280;68944;48.262;14.208;2023-08-12T02:22:43;98794.00;;;19.05;58.35
79481;BME280;68944;48.262;14.208;2023-08-12T02:25:09;98791.56;;;18.98;58.34
79481;BME280;68944;48.262;14.208;2023-08-12T02:27:34;98785.66;;;18.96;58.20
79481;BME280;68944;48.262;14.208;2023-08-12T02:30:00;98784.31;;;18.98;58.00
79481;BME280;68944;48.262;14.208;2023-08-12T02:32:26;98783.22;;;18.94;57.99
79481;BME280;68944;48.262;14.208;2023-08-12T02:34:52;98785.13;;;18.94;58.05
79481;BME280;68944;48.262;14.208;2023-08-12T02:37:17;98782.97;;;18.96;57.86
79481;BME280;68944;48.262;14.208;2023-08-12T02:39:43;98793.44;;;18.97;57.83
79481;BME280;68944;48.262;14.208;2023-08-12T02:42:08;98791.84;;;18.96;57.75
79481;BME280;68944;48.262;14.208;2023-08-12T02:44:34;98781.09;;;18.96;57.72
79481;BME280;68944;48.262;14.208;2023-08-12T02:47:00;98778.41;;;18.91;58.03
79481;BME280;68944;48.262;14.208;2023-08-12T02:49:25;98771.38;;;18.80;57.85
79481;BME280;68944;48.262;14.208;2023-08-12T02:51:51;98776.22;;;18.78;58.20
79481;BME280;68944;48.262;14.208;2023-08-12T02:54:16;98770.84;;;18.78;58.01
79481;BME280;68944;48.262;14.208;2023-08-12T02:56:42;98766.81;;;18.80;57.99
79481;BME280;68944;48.262;14.208;2023-08-12T02:59:07;98771.66;;;18.83;58.64
79481;BME280;68944;48.262;14.208;2023-08-12T03:01:33;98769.25;;;18.82;58.32
79481;BME280;68944;48.262;14.208;2023-08-12T03:03:58;98772.44;;;18.79;58.42
79481;BME280;68944;48.262;14.208;2023-08-12T03:06:24;98774.31;;;18.78;58.45
79481;BME280;68944;48.262;14.208;2023-08-12T03:08:49;98775.66;;;18.75;58.79
79481;BME280;68944;48.262;14.208;2023-08-12T03:11:15;98774.31;;;18.73;58.77
79481;BME280;68944;48.262;14.208;2023-08-12T03:13:42;98774.31;;;18.73;58.97
79481;BME280;68944;48.262;14.208;2023-08-12T03:16:12;98772.94;;;18.70;58.49
79481;BME280;68944;48.262;14.208;2023-08-12T03:18:40;98773.47;;;18.67;58.33
79481;BME280;68944;48.262;14.208;2023-08-12T03:21:07;98772.66;;;18.67;58.73
79481;BME280;68944;48.262;14.208;2023-08-12T03:23:36;98774.56;;;18.66;58.95
79481;BME280;68944;48.262;14.208;2023-08-12T03:26:02;98768.66;;;18.64;58.94
79481;BME280;68944;48.262;14.208;2023-08-12T03:28:29;98764.06;;;18.59;59.03
79481;BME280;68944;48.262;14.208;2023-08-12T03:30:56;98757.06;;;18.58;58.99
79481;BME280;68944;48.262;14.208;2023-08-12T03:33:23;98758.94;;;18.58;58.80
79481;BME280;68944;48.262;14.208;2023-08-12T03:35:49;98756.00;;;18.59;58.79
79481;BME280;68944;48.262;14.208;2023-08-12T03:38:15;98756.25;;;18.58;58.72
79481;BME280;68944;48.262;14.208;2023-08-12T03:40:42;98756.53;;;18.56;58.95
79481;BME280;68944;48.262;14.208;2023-08-12T03:43:09;98748.75;;;18.55;58.61
79481;BME280;68944;48.262;14.208;2023-08-12T03:45:40;98754.34;;;18.53;58.65
79481;BME280;68944;48.262;14.208;2023-08-12T03:48:07;98750.31;;;18.50;58.72
79481;BME280;68944;48.262;14.208;2023-08-12T03:50:37;98758.38;;;18.45;58.67
79481;BME280;68944;48.262;14.208;2023-08-12T03:53:03;98754.56;;;18.41;58.82
79481;BME280;68944;48.262;14.208;2023-08-12T03:55:33;98759.66;;;18.37;59.00
79481;BME280;68944;48.262;14.208;2023-08-12T03:57:59;98757.47;;;18.34;59.44
79481;BME280;68944;48.262;14.208;2023-08-12T04:00:26;98758.84;;;18.37;59.42
79481;BME280;68944;48.262;14.208;2023-08-12T04:02:57;98753.44;;;18.26;59.67
79481;BME280;68944;48.262;14.208;2023-08-12T04:05:22;98758.06;;;17.98;61.55
79481;BME280;68944;48.262;14.208;2023-08-12T04:07:48;98748.69;;;18.01;61.18
79481;BME280;68944;48.262;14.208;2023-08-12T04:10:14;98745.28;;;18.11;60.57
79481;BME280;68944;48.262;14.208;2023-08-12T04:12:40;98751.00;;;18.25;60.03
79481;BME280;68944;48.262;14.208;2023-08-12T04:15:07;98749.97;;;18.31;60.10
79481;BME280;68944;48.262;14.208;2023-08-12T04:17:33;98747.41;;;18.08;60.68
79481;BME280;68944;48.262;14.208;2023-08-12T04:20:00;98744.75;;;18.14;60.55
79481;BME280;68944;48.262;14.208;2023-08-12T04:22:26;98753.97;;;18.28;60.25
79481;BME280;68944;48.262;14.208;2023-08-12T04:24:53;98751.06;;;18.35;59.96
79481;BME280;68944;48.262;14.208;2023-08-12T04:27:19;98745.97;;;18.39;59.76
79481;BME280;68944;48.262;14.208;2023-08-12T04:29:45;98748.66;;;18.39;60.08
79481;BME280;68944;48.262;14.208;2023-08-12T04:32:10;98745.75;;;18.40;59.96
79481;BME280;68944;48.262;14.208;2023-08-12T04:34:36;98749.44;;;18.29;60.47
79481;BME280;68944;48.262;14.208;2023-08-12T04:37:02;98755.34;;;18.36;60.38
79481;BME280;68944;48.262;14.208;2023-08-12T04:39:29;98747.00;;;18.22;60.51
79481;BME280;68944;48.262;14.208;2023-08-12T04:41:54;98747.50;;;18.19;60.77
79481;BME280;68944;48.262;14.208;2023-08-12T04:44:20;98752.47;;;18.05;61.37
79481;BME280;68944;48.262;14.208;2023-08-12T04:46:46;98762.38;;;18.04;61.63
79481;BME280;68944;48.262;14.208;2023-08-12T04:49:12;98754.13;;;18.11;61.30
79481;BME280;68944;48.262;14.208;2023-08-12T04:51:38;98750.72;;;18.21;61.03
79481;BME280;68944;48.262;14.208;2023-08-12T04:54:04;98753.75;;;18.35;60.90
79481;BME280;68944;48.262;14.208;2023-08-12T04:56:30;98750.31;;;18.45;60.90
79481;BME280;68944;48.262;14.208;2023-08-12T04:58:55;98750.06;;;18.52;60.93
79481;BME280;68944;48.262;14.208;2023-08-12T05:01:22;98748.75;;;18.60;60.83
79481;BME280;68944;48.262;14.208;2023-08-12T05:03:48;98746.09;;;18.65;60.79
79481;BME280;68944;48.262;14.208;2023-08-12T05:06:14;98744.22;;;18.65;60.53
79481;BME280;68944;48.262;14.208;2023-08-12T05:08:39;98742.56;;;18.54;61.22
79481;BME280;68944;48.262;14.208;2023-08-12T05:11:05;98743.25;;;18.28;62.44
79481;BME280;68944;48.262;14.208;2023-08-12T05:13:30;98750.22;;;18.24;62.94
79481;BME280;68944;48.262;14.208;2023-08-12T05:15:56;98741.00;;;18.15;63.35
79481;BME280;68944;48.262;14.208;2023-08-12T05:18:22;98740.69;;;18.06;63.75
79481;BME280;68944;48.262;14.208;2023-08-12T05:20:52;98736.66;;;18.03;63.97
79481;BME280;68944;48.262;14.208;2023-08-12T05:23:19;98739.34;;;18.03;64.01
79481;BME280;68944;48.262;14.208;2023-08-12T05:25:45;98743.25;;;18.28;63.45
79481;BME280;68944;48.262;14.208;2023-08-12T05:28:11;98747.63;;;18.50;62.89
79481;BME280;68944;48.262;14.208;2023-08-12T05:30:36;98748.50;;;18.61;62.67
79481;BME280;68944;48.262;14.208;2023-08-12T05:33:03;98750.13;;;18.68;62.42
79481;BME280;68944;48.262;14.208;2023-08-12T05:35:28;98738.34;;;18.79;61.98
79481;BME280;68944;48.262;14.208;2023-08-12T05:37:58;98739.22;;;19.01;61.67
79481;BME280;68944;48.262;14.208;2023-08-12T05:40:23;98735.44;;;19.02;61.62
79481;BME280;68944;48.262;14.208;2023-08-12T05:42:49;98742.97;;;18.89;62.29
79481;BME280;68944;48.262;14.208;2023-08-12T05:45:14;98735.72;;;19.00;62.18
79481;BME280;68944;48.262;14.208;2023-08-12T05:47:40;98735.47;;;18.96;62.90
79481;BME280;68944;48.262;14.208;2023-08-12T05:50:05;98729.56;;;19.05;62.71
79481;BME280;68944;48.262;14.208;2023-08-12T05:52:32;98737.38;;;19.22;62.27
79481;BME280;68944;48.262;14.208;2023-08-12T05:54:58;98733.38;;;19.35;61.88
79481;BME280;68944;48.262;14.208;2023-08-12T05:57:23;98741.19;;;19.47;61.47
79481;BME280;68944;48.262;14.208;2023-08-12T05:59:49;98744.66;;;19.53;61.48
79481;BME280;68944;48.262;14.208;2023-08-12T06:02:14;98746.81;;;19.46;61.87
79481;BME280;68944;48.262;14.208;2023-08-12T06:04:40;98742.25;;;19.51;62.04
79481;BME280;68944;48.262;14.208;2023-08-12T06:07:05;98738.78;;;19.61;61.30
79481;BME280;68944;48.262;14.208;2023-08-12T06:09:31;98732.31;;;19.67;61.28
79481;BME280;68944;48.262;14.208;2023-08-12T06:11:56;98727.47;;;19.70;61.29
79481;BME280;68944;48.262;14.208;2023-08-12T06:14:22;98725.84;;;19.69;61.64
79481;BME280;68944;48.262;14.208;2023-08-12T06:16:47;98725.56;;;19.81;61.69
79481;BME280;68944;48.262;14.208;2023-08-12T06:19:13;98720.44;;;19.89;61.58
79481;BME280;68944;48.262;14.208;2023-08-12T06:21:38;98723.94;;;19.95;61.59
79481;BME280;68944;48.262;14.208;2023-08-12T06:24:04;98718.81;;;20.04;61.59
79481;BME280;68944;48.262;14.208;2023-08-12T06:26:29;98718.81;;;20.09;61.36
79481;BME280;68944;48.262;14.208;2023-08-12T06:28:55;98716.09;;;20.09;61.05
79481;BME280;68944;48.262;14.208;2023-08-12T06:31:20;98711.84;;;20.03;61.56
79481;BME280;68944;48.262;14.208;2023-08-12T06:33:46;98708.91;;;19.89;62.78
79481;BME280;68944;48.262;14.208;2023-08-12T06:36:11;98703.47;;;20.05;62.19
79481;BME280;68944;48.262;14.208;2023-08-12T06:38:37;98709.09;;;20.24;61.92
79481;BME280;68944;48.262;14.208;2023-08-12T06:41:02;98710.69;;;20.35;61.52
79481;BME280;68944;48.262;14.208;2023-08-12T06:43:28;98707.72;;;20.37;61.27
79481;BME280;68944;48.262;14.208;2023-08-12T06:45:53;98709.56;;;20.42;61.37
79481;BME280;68944;48.262;14.208;2023-08-12T06:48:19;98714.34;;;20.55;61.11
79481;BME280;68944;48.262;14.208;2023-08-12T06:50:44;98712.72;;;20.60;60.98
79481;BME280;68944;48.262;14.208;2023-08-12T06:53:10;98715.91;;;20.67;61.32
79481;BME280;68944;48.262;14.208;2023-08-12T06:55:36;98717.22;;;20.75;60.58
79481;BME280;68944;48.262;14.208;2023-08-12T06:58:01;98715.06;;;20.77;60.53
79481;BME280;68944;48.262;14.208;2023-08-12T07:00:27;98711.28;;;20.78;60.77
79481;BME280;68944;48.262;14.208;2023-08-12T07:02:53;98712.81;;;20.89;60.25
79481;BME280;68944;48.262;14.208;2023-08-12T07:05:18;98713.09;;;20.93;59.99
79481;BME280;68944;48.262;14.208;2023-08-12T07:07:44;98700.38;;;21.04;60.37
79481;BME280;68944;48.262;14.208;2023-08-12T07:10:10;98699.22;;;21.16;59.69
79481;BME280;68944;48.262;14.208;2023-08-12T07:12:36;98699.44;;;21.19;59.36
79481;BME280;68944;48.262;14.208;2023-08-12T07:15:01;98697.22;;;21.32;58.89
79481;BME280;68944;48.262;14.208;2023-08-12T07:17:27;98693.66;;;21.36;58.61
79481;BME280;68944;48.262;14.208;2023-08-12T07:19:52;98697.38;;;21.46;58.30
79481;BME280;68944;48.262;14.208;2023-08-12T07:22:18;98684.63;;;21.52;57.90
79481;BME280;68944;48.262;14.208;2023-08-12T07:24:45;98688.38;;;21.56;57.54
79481;BME280;68944;48.262;14.208;2023-08-12T07:27:11;98689.38;;;21.65;57.90
79481;BME280;68944;48.262;14.208;2023-08-12T07:29:36;98690.63;;;21.73;57.58
79481;BME280;68944;48.262;14.208;2023-08-12T07:32:02;98686.22;;;21.82;57.25
79481;BME280;68944;48.262;14.208;2023-08-12T07:34:28;98689.75;;;21.83;56.52
79481;BME280;68944;48.262;14.208;2023-08-12T07:36:53;98678.63;;;21.90;56.51
79481;BME280;68944;48.262;14.208;2023-08-12T07:39:19;98686.91;;;21.99;56.35
79481;BME280;68944;48.262;14.208;2023-08-12T07:41:44;98680.81;;;22.12;56.15
79481;BME280;68944;48.262;14.208;2023-08-12T07:44:10;98688.34;;;22.15;56.12
79481;BME280;68944;48.262;14.208;2023-08-12T07:46:35;98684.22;;;22.23;56.04
79481;BME280;68944;48.262;14.208;2023-08-12T07:49:01;98677.41;;;22.26;55.55
79481;BME280;68944;48.262;14.208;2023-08-12T07:51:26;98675.16;;;22.33;55.62
79481;BME280;68944;48.262;14.208;2023-08-12T07:53:52;98669.69;;;22.38;55.24
79481;BME280;68944;48.262;14.208;2023-08-12T07:56:17;98670.66;;;22.48;55.28
79481;BME280;68944;48.262;14.208;2023-08-12T07:58:43;98669.50;;;22.54;55.39
79481;BME280;68944;48.262;14.208;2023-08-12T08:01:08;98668.91;;;22.57;55.25
79481;BME280;68944;48.262;14.208;2023-08-12T08:03:34;98663.66;;;22.66;54.79
79481;BME280;68944;48.262;14.208;2023-08-12T08:06:00;98671.66;;;22.77;55.05
79481;BME280;68944;48.262;14.208;2023-08-12T08:08:25;98682.31;;;22.87;54.56
79481;BME280;68944;48.262;14.208;2023-08-12T08:10:51;98676.03;;;22.92;54.33
79481;BME280;68944;48.262;14.208;2023-08-12T08:13:16;98682.94;;;22.98;54.27
79481;BME280;68944;48.262;14.208;2023-08-12T08:15:42;98668.56;;;23.03;54.07
79481;BME280;68944;48.262;14.208;2023-08-12T08:18:07;98671.38;;;23.12;53.80
79481;BME280;68944;48.262;14.208;2023-08-12T08:20:33;98662.91;;;23.18;53.58
79481;BME280;68944;48.262;14.208;2023-08-12T08:22:58;98659.03;;;23.25;54.67
79481;BME280;68944;48.262;14.208;2023-08-12T08:25:24;98651.63;;;23.30;54.07
79481;BME280;68944;48.262;14.208;2023-08-12T08:27:49;98648.44;;;23.42;53.49
79481;BME280;68944;48.262;14.208;2023-08-12T08:30:15;98649.41;;;23.52;53.68
79481;BME280;68944;48.262;14.208;2023-08-12T08:32:40;98647.28;;;23.63;53.37
79481;BME280;68944;48.262;14.208;2023-08-12T08:35:06;98644.19;;;23.70;53.13
79481;BME280;68944;48.262;14.208;2023-08-12T08:37:31;98649.53;;;23.75;53.58
79481;BME280;68944;48.262;14.208;2023-08-12T08:39:57;98648.63;;;23.80;53.51
79481;BME280;68944;48.262;14.208;2023-08-12T08:42:24;98650.63;;;23.88;53.05
79481;BME280;68944;48.262;14.208;2023-08-12T08:44:52;98645.31;;;23.97;52.52
79481;BME280;68944;48.262;14.208;2023-08-12T08:47:25;98650.31;;;24.04;52.18
79481;BME280;68944;48.262;14.208;2023-08-12T08:49:56;98644.50;;;24.11;51.81
79481;BME280;68944;48.262;14.208;2023-08-12T08:52:25;98640.75;;;24.20;51.57
79481;BME280;68944;48.262;14.208;2023-08-12T08:54:51;98639.59;;;24.27;52.34
79481;BME280;68944;48.262;14.208;2023-08-12T08:57:18;98645.09;;;24.36;51.46
79481;BME280;68944;48.262;14.208;2023-08-12T08:59:44;98630.66;;;24.40;51.90
79481;BME280;68944;48.262;14.208;2023-08-12T09:02:17;98629.41;;;24.47;51.21
79481;BME280;68944;48.262;14.208;2023-08-12T09:04:46;98631.09;;;24.57;50.74
79481;BME280;68944;48.262;14.208;2023-08-12T09:07:12;98629.59;;;24.64;51.09
79481;BME280;68944;48.262;14.208;2023-08-12T09:09:45;98627.13;;;24.77;51.00
79481;BME280;68944;48.262;14.208;2023-08-12T09:12:14;98626.69;;;24.84;50.75
79481;BME280;68944;48.262;14.208;2023-08-12T09:14:40;98619.72;;;24.92;50.45
79481;BME280;68944;48.262;14.208;2023-08-12T09:17:06;98623.63;;;24.99;50.50
79481;BME280;68944;48.262;14.208;2023-08-12T09:19:32;98616.19;;;25.05;50.20
79481;BME280;68944;48.262;14.208;2023-08-12T09:21:58;98614.13;;;25.11;49.95
79481;BME280;68944;48.262;14.208;2023-08-12T09:24:27;98621.19;;;25.21;49.63
79481;BME280;68944;48.262;14.208;2023-08-12T09:26:56;98617.75;;;25.29;49.66
79481;BME280;68944;48.262;14.208;2023-08-12T09:29:23;98619.22;;;25.36;49.72
79481;BME280;68944;48.262;14.208;2023-08-12T09:31:50;98625.97;;;25.47;50.17
79481;BME280;68944;48.262;14.208;2023-08-12T09:34:17;98621.19;;;25.53;48.00
79481;BME280;68944;48.262;14.208;2023-08-12T09:36:43;98616.44;;;25.59;48.06
79481;BME280;68944;48.262;14.208;2023-08-12T09:39:09;98616.38;;;25.73;48.18
79481;BME280;68944;48.262;14.208;2023-08-12T09:41:34;98611.44;;;25.84;48.69
79481;BME280;68944;48.262;14.208;2023-08-12T09:44:01;98623.78;;;25.99;48.09
79481;BME280;68944;48.262;14.208;2023-08-12T09:46:27;98609.75;;;26.06;48.40
79481;BME280;68944;48.262;14.208;2023-08-12T09:48:53;98613.91;;;26.21;48.30
79481;BME280;68944;48.262;14.208;2023-08-12T09:51:21;98616.97;;;26.28;47.81
79481;BME280;68944;48.262;14.208;2023-08-12T09:53:48;98612.50;;;26.41;48.18
79481;BME280;68944;48.262;14.208;2023-08-12T09:56:23;98614.91;;;26.52;48.30
79481;BME280;68944;48.262;14.208;2023-08-12T09:58:49;98611.25;;;26.65;47.98
79481;BME280;68944;48.262;14.208;2023-08-12T10:01:19;98606.13;;;26.73;47.91
79481;BME280;68944;48.262;14.208;2023-08-12T10:03:51;98598.75;;;26.82;47.88
79481;BME280;68944;48.262;14.208;2023-08-12T10:06:17;98603.84;;;26.92;46.42
79481;BME280;68944;48.262;14.208;2023-08-12T10:08:45;98596.47;;;27.02;47.31
79481;BME280;68944;48.262;14.208;2023-08-12T10:11:11;98598.09;;;27.03;45.38
79481;BME280;68944;48.262;14.208;2023-08-12T10:13:37;98590.25;;;27.10;46.15
79481;BME280;68944;48.262;14.208;2023-08-12T10:16:03;98591.50;;;27.22;46.24
79481;BME280;68944;48.262;14.208;2023-08-12T10:18:30;98590.78;;;27.34;46.88
79481;BME280;68944;48.262;14.208;2023-08-12T10:20:59;98589.78;;;27.47;46.53
79481;BME280;68944;48.262;14.208;2023-08-12T10:23:25;98582.25;;;27.53;46.34
79481;BME280;68944;48.262;14.208;2023-08-12T10:25:53;98572.59;;;27.65;46.42
79481;BME280;68944;48.262;14.208;2023-08-12T10:28:20;98583.09;;;27.75;46.24
79481;BME280;68944;48.262;14.208;2023-08-12T10:30:46;98576.84;;;27.83;45.92
79481;BME280;68944;48.262;14.208;2023-08-12T10:33:14;98584.41;;;27.99;46.39
79481;BME280;68944;48.262;14.208;2023-08-12T10:35:46;98579.06;;;28.12;45.74
79481;BME280;68944;48.262;14.208;2023-08-12T10:38:21;98588.09;;;28.25;44.82
79481;BME280;68944;48.262;14.208;2023-08-12T10:40:47;98579.72;;;28.30;43.01
79481;BME280;68944;48.262;14.208;2023-08-12T10:43:13;98579.97;;;28.37;44.51
79481;BME280;68944;48.262;14.208;2023-08-12T10:45:47;98572.69;;;28.50;43.98
79481;BME280;68944;48.262;14.208;2023-08-12T10:48:18;98572.28;;;28.61;43.06
79481;BME280;68944;48.262;14.208;2023-08-12T10:50:49;98570.59;;;28.69;42.31
79481;BME280;68944;48.262;14.208;2023-08-12T10:53:26;98573.44;;;28.72;42.00
79481;BME280;68944;48.262;14.208;2023-08-12T10:55:58;98572.81;;;28.88;44.66
79481;BME280;68944;48.262;14.208;2023-08-12T10:58:35;98571.69;;;29.02;42.80
79481;BME280;68944;48.262;14.208;2023-08-12T11:01:01;98558.44;;;29.13;41.86
79481;BME280;68944;48.262;14.208;2023-08-12T11:03:32;98561.31;;;29.29;41.67
79481;BME280;68944;48.262;14.208;2023-08-12T11:05:59;98558.59;;;29.41;40.79
79481;BME280;68944;48.262;14.208;2023-08-12T11:08:28;98558.13;;;29.52;39.25
79481;BME280;68944;48.262;14.208;2023-08-12T11:10:55;98549.03;;;29.60;39.42
79481;BME280;68944;48.262;14.208;2023-08-12T11:13:27;98557.91;;;29.70;39.61
79481;BME280;68944;48.262;14.208;2023-08-12T11:15:52;98549.69;;;29.82;39.12
79481;BME280;68944;48.262;14.208;2023-08-12T11:18:29;98555.47;;;29.93;39.48
79481;BME280;68944;48.262;14.208;2023-08-12T11:20:55;98539.50;;;30.08;39.65
79481;BME280;68944;48.262;14.208;2023-08-12T11:23:21;98542.53;;;30.19;38.75
79481;BME280;68944;48.262;14.208;2023-08-12T11:25:47;98548.19;;;30.39;38.51
79481;BME280;68944;48.262;14.208;2023-08-12T11:28:18;98543.66;;;30.59;38.71
79481;BME280;68944;48.262;14.208;2023-08-12T11:30:45;98536.81;;;30.82;38.57
79481;BME280;68944;48.262;14.208;2023-08-12T11:33:11;98533.06;;;31.03;37.86
79481;BME280;68944;48.262;14.208;2023-08-12T11:35:37;98536.84;;;31.14;37.30
79481;BME280;68944;48.262;14.208;2023-08-12T11:38:05;98526.25;;;31.29;37.66
79481;BME280;68944;48.262;14.208;2023-08-12T11:40:30;98517.94;;;31.41;37.01
79481;BME280;68944;48.262;14.208;2023-08-12T11:42:56;98520.69;;;31.58;36.79
79481;BME280;68944;48.262;14.208;2023-08-12T11:45:25;98515.44;;;31.68;36.40
79481;BME280;68944;48.262;14.208;2023-08-12T11:47:51;98514.16;;;31.82;35.52
79481;BME280;68944;48.262;14.208;2023-08-12T11:50:25;98514.88;;;31.99;35.99
79481;BME280;68944;48.262;14.208;2023-08-12T11:52:52;98511.41;;;32.02;33.40
79481;BME280;68944;48.262;14.208;2023-08-12T11:55:18;98506.00;;;32.06;34.15
79481;BME280;68944;48.262;14.208;2023-08-12T11:57:45;98499.19;;;32.16;35.59
79481;BME280;68944;48.262;14.208;2023-08-12T12:00:12;98494.53;;;32.40;36.36
79481;BME280;68944;48.262;14.208;2023-08-12T12:02:49;98502.66;;;32.56;34.67
79481;BME280;68944;48.262;14.208;2023-08-12T12:05:16;98507.56;;;32.66;35.34
79481;BME280;68944;48.262;14.208;2023-08-12T12:07:42;98502.16;;;32.70;34.38
79481;BME280;68944;48.262;14.208;2023-08-12T12:10:13;98500.66;;;32.76;33.45
79481;BME280;68944;48.262;14.208;2023-08-12T12:12:38;98495.56;;;32.98;33.18
79481;BME280;68944;48.262;14.208;2023-08-12T12:15:04;98493.34;;;33.08;34.28
79481;BME280;68944;48.262;14.208;2023-08-12T12:17:30;98498.72;;;33.24;34.20
79481;BME280;68944;48.262;14.208;2023-08-12T12:19:58;98491.03;;;33.37;33.21
79481;BME280;68944;48.262;14.208;2023-08-12T12:22:31;98494.22;;;33.39;31.70
79481;BME280;68944;48.262;14.208;2023-08-12T12:25:06;98495.25;;;33.58;32.86
79481;BME280;68944;48.262;14.208;2023-08-12T12:27:32;98490.69;;;33.69;32.34
79481;BME280;68944;48.262;14.208;2023-08-12T12:29:59;98492.91;;;33.87;32.16
79481;BME280;68944;48.262;14.208;2023-08-12T12:32:25;98489.31;;;33.83;31.16
79481;BME280;68944;48.262;14.208;2023-08-12T12:34:51;98493.34;;;33.89;31.38
79481;BME280;68944;48.262;14.208;2023-08-12T12:37:17;98492.78;;;34.11;32.20
79481;BME280;68944;48.262;14.208;2023-08-12T12:39:43;98490.28;;;34.33;32.37
79481;BME280;68944;48.262;14.208;2023-08-12T12:42:08;98491.22;;;34.48;31.84
79481;BME280;68944;48.262;14.208;2023-08-12T12:44:34;98489.75;;;34.58;30.98
79481;BME280;68944;48.262;14.208;2023-08-12T12:46:59;98488.31;;;34.75;30.42
79481;BME280;68944;48.262;14.208;2023-08-12T12:49:25;98486.81;;;34.81;29.22